This is the latest recevied weather packets stored in our database for station/object BM1CKC-10. If no packets are shown the sender has not sent any weather packets the latest 10 day(s).
| Time | Temp. | Humidity | Pressure | Rain* | Wind** | Luminosity | Snow |
|---|---|---|---|---|---|---|---|
| 1777805398 | 28.89° C | 64% | 1003.9 hPa | - | - | - | - |
| 1777804198 | 28.89° C | 65% | 1003.9 hPa | - | - | - | - |
| 1777802999 | 28.89° C | 64% | 1003.7 hPa | - | - | - | - |
| 1777801798 | 28.89° C | 64% | 1003.4 hPa | - | - | - | - |
| 1777800597 | 28.89° C | 62% | 1003 hPa | - | - | - | - |
| 1777799398 | 29.44° C | 61% | 1002.8 hPa | - | - | - | - |
| 1777798198 | 28.89° C | 63% | 1002.6 hPa | - | - | - | - |
| 1777796998 | 28.89° C | 62% | 1002.6 hPa | - | - | - | - |
| 1777795798 | 28.89° C | 62% | 1002.5 hPa | - | - | - | - |
| 1777794598 | 28.89° C | 64% | 1002.6 hPa | - | - | - | - |
| 1777793398 | 30.56° C | 58% | 1002.4 hPa | - | - | - | - |
| 1777792208 | 28.89° C | 62% | 1002.5 hPa | - | - | - | - |
| 1777790998 | 28.89° C | 61% | 1002.8 hPa | - | - | - | - |
| 1777789807 | 29.44° C | 62% | 1002.9 hPa | - | - | - | - |
| 1777788598 | 29.44° C | 60% | 1003.2 hPa | - | - | - | - |
| 1777787398 | 28.89° C | 61% | 1003.1 hPa | - | - | - | - |
| 1777786197 | 28.89° C | 63% | 1003.5 hPa | - | - | - | - |
| 1777784998 | 28.89° C | 61% | 1003.7 hPa | - | - | - | - |
| 1777783798 | 29.44° C | 59% | 1003.5 hPa | - | - | - | - |
| 1777782598 | 30° C | 57% | 1003.6 hPa | - | - | - | - |
| 1777781398 | 30° C | 58% | 1003.7 hPa | - | - | - | - |
| 1777780198 | 29.44° C | 60% | 1003.6 hPa | - | - | - | - |
| 1777778998 | 30° C | 58% | 1003.5 hPa | - | - | - | - |
| 1777777798 | 30° C | 58% | 1003.6 hPa | - | - | - | - |
| 1777776598 | 29.44° C | 59% | 1003.4 hPa | - | - | - | - |
* Rain since midnight (hover to see other rain measurements)
** Current wind speed in m/s (hover to see current wind gust speed)